Cortez, CO

2:15 PM MDT on October 25, 2014 (GMT -0600)
Kelly Place B&B, McElmo Canyon | Change Station
CLOSE
Current Station
Personal Weather Station
Location: Cortez, CO
Elevation: 5522 ft
Nearby Weather Stations

Elev 5522 ft 37.34 °N, 108.79 °W | Updated 3 minutes ago

Clear
Clear
82.2 °F
Feels Like 80 °F
N
8.7
Wind Variable Wind from WNW
Gusts 8.7 mph

Today
High -- | Low -- °F
--% Chance of Precip.
Yesterday
High -- | Low -- °F
Precip. -- in
7:32 AM 6:24 PM
Waxing Crescent, 4% visible
Pressure 30.12 in
Visibility 10.0 miles
Clouds Clear
Heat Index 80 °F
Dew Point 39 °F
Humidity 22%
Rainfall 0.00 in
Snow Depth Not available.
UV 5 out of 12
Pollen 2.60 out of 12
Air Quality Not available.
Flu Activity Sporadic
METAR KCEZ 251953Z AUTO 21013KT 10SM CLR 24/00 A3026 RMK AO2 SLP200 T02390000

More Conditions Fewer Conditions

Pressure 30.12 in
Visibility 10.0 miles
Clouds Clear
Heat Index 80 °F
Dew Point 39 °F
Humidity 22%
Rainfall 0.00 in
Snow Depth Not available.
UV 5 out of 12
Pollen 2.60 out of 12
Air Quality Not available.
Flu Activity Sporadic
METAR KCEZ 251953Z AUTO 21013KT 10SM CLR 24/00 A3026 RMK AO2 SLP200 T02390000

More Conditions Fewer Conditions

10-Day Weather Forecast

Almanac

Astronomy

Oct. 25, 2014 Rise Set
Actual Time 7:32 AM MDT 6:24 PM MDT
Civil Twilight 7:05 AM MDT 6:51 PM MDT
Nautical Twilight 6:35 AM MDT 7:22 PM MDT
Astronomical Twilight 6:05 AM MDT 7:52 PM MDT
Moon 9:12 AM MDT 7:52 PM MDT
Length of Visible Light 11h 45m
Length of Day
10h 52m
Tomorrow will be 2m 11s shorter.
Waxing Crescent, 4% of the Moon is Illuminated
Today
Waxing Crescent
Oct 30
First Quarter
Nov 6
Full
Nov 14
Last Quarter
Nov 22
New

Today's Extremes

State Highs State Lows

Community

WunderPhotos

Upload Photos

1,764,976 photos uploaded!

Nearby

Snow Depth

Station Depth Elevation
Columbus Basin 0 in 10785 ft
Spud Mountain 0 in 10660 ft
Mineral Creek 1 in 10040 ft
Red Mountain Pass 1 in 11150 ft
Lily Pond 0 in 11000 ft

Earthquake Activity

City Distance Mag. Time & Date
No recent earthquake activity has been reported nearby.
Minimum magnitude displayed is 2.5.

Coastal Water Temperatures

Place Temperature
No Stations Reporting

Nearby Weather Stations